PST,Max TemperatureF,Mean TemperatureF,Min TemperatureF,Max Dew PointF,MeanDew PointF,Min DewpointF,Max Humidity, Mean Humidity, Min Humidity, Max Sea Level PressureIn, Mean Sea Level PressureIn, Min Sea Level PressureIn, Max VisibilityMiles, Mean VisibilityMiles, Min VisibilityMiles, Max Wind SpeedMPH, Mean Wind SpeedMPH, Max Gust SpeedMPH,PrecipitationIn, CloudCover, Events, WindDirDegrees
2014-2-1,64,49,34,43,30,20,71,45,18,30.12,30.07,30.02,10,10,10,21,5,24,0.00,0,,312
2014-2-2,62,51,39,45,33,22,82,53,23,30.11,30.05,29.98,10,10,8,20,5,26,0.05,2,Rain,66
2014-2-3,62,51,39,47,40,35,85,66,46,30.01,29.96,29.92,10,10,10,17,7,26,0.00,0,,354
2014-2-4,61,48,35,42,36,30,82,59,36,30.12,30.06,30.01,10,10,10,9,4,62,0.00,0,,178
2014-2-5,62,50,37,42,38,34,82,60,37,30.17,30.10,30.06,10,10,10,14,6,20,0.00,0,,65
2014-2-6,60,55,50,52,47,39,93,74,55,30.10,30.03,29.97,10,8,1,13,4,15,0.23,8,Rain,66
2014-2-7,61,54,47,52,49,46,100,80,60,30.24,30.15,30.04,10,8,3,13,3,15,0.00,6,,135
2014-2-8,60,56,52,55,53,48,100,86,72,30.31,30.24,30.19,10,6,2,13,3,14,0.05,8,Rain,233
2014-2-9,64,59,54,55,53,51,93,80,67,30.25,30.19,30.12,10,8,2,12,4,15,0.03,6,Rain,84
2014-2-10,69,59,48,56,51,45,93,78,63,30.17,30.11,30.04,10,10,8,5,4,,0.00,0,,58
2014-2-11,71,58,45,55,46,41,82,59,35,30.12,30.08,30.04,10,10,10,13,4,,0.00,0,,225
2014-2-12,74,60,46,49,43,34,80,55,29,30.17,30.11,30.06,10,10,10,9,4,13,0.00,0,,276
2014-2-13,74,60,45,54,44,32,89,60,30,30.10,30.05,30.00,10,10,9,9,3,,0.00,0,,177
2014-2-14,74,58,41,52,46,38,86,64,42,30.09,30.04,29.98,10,10,10,9,3,,0.00,0,,112
2014-2-15,73,59,44,54,49,38,93,65,36,30.07,30.01,29.96,10,8,0,12,2,15,0.00,2,Fog,281
2014-2-16,70,60,49,54,51,46,100,72,44,30.10,30.02,29.97,10,7,0,12,4,21,0.00,1,Fog,137
2014-2-17,66,55,44,53,47,41,89,75,60,30.11,30.06,30.02,10,9,7,12,3,16,0.00,1,,188
2014-2-18,64,54,44,52,49,42,93,79,65,30.10,30.04,29.99,10,8,4,14,4,25,0.00,1,,278
2014-2-19,65,56,47,51,49,40,93,77,60,30.04,29.98,29.93,10,7,3,12,4,18,0.00,4,,305
2014-2-20,84,66,47,45,34,21,80,45,10,30.05,30.00,29.97,10,10,10,32,11,39,0.00,0,,44
2014-2-21,76,62,47,54,41,28,86,55,24,30.01,29.96,29.90,10,10,9,13,3,,0.00,0,,239
2014-2-22,70,56,42,51,43,36,93,65,37,29.97,29.92,29.88,10,8,0,9,2,,0.00,0,Fog,243
2014-2-23,65,55,44,53,47,37,93,75,56,30.02,29.98,29.93,10,6,0,15,3,23,0.00,4,Fog,266
2014-2-24,66,57,47,52,49,45,100,76,52,30.06,30.00,29.97,10,4,0,12,4,,0.00,5,Fog,149
2014-2-25,65,57,48,51,48,45,93,75,56,30.07,30.03,29.99,10,6,0,15,5,20,0.00,3,Fog,110
2014-2-26,65,61,56,55,51,48,93,77,60,30.11,30.05,29.99,10,9,2,15,4,,0.00,8,Rain,56
2014-2-27,68,62,55,58,55,51,100,82,63,30.04,29.96,29.83,10,7,1,16,6,22,1.24,6,Rain,167
2014-2-28,63,59,55,59,54,49,93,87,80,29.78,29.68,29.62,10,6,2,26,12,44,1.70,7,Rain,147